createdAt,value
2018-08-04T00:00:13.289Z,23.13
2018-08-04T00:01:19.966Z,23.07
2018-08-04T00:02:26.641Z,23.02
2018-08-04T00:03:33.331Z,22.99
2018-08-04T00:04:40.015Z,22.97
2018-08-04T00:05:46.687Z,23.00
2018-08-04T00:06:53.363Z,22.98
2018-08-04T00:08:00.044Z,22.92
2018-08-04T00:09:06.747Z,22.84
2018-08-04T00:10:13.378Z,22.76
2018-08-04T00:11:20.058Z,22.65
2018-08-04T00:12:26.726Z,22.58
2018-08-04T00:13:33.400Z,22.52
2018-08-04T00:14:40.070Z,22.41
2018-08-04T00:15:46.732Z,22.36
2018-08-04T00:16:53.387Z,22.29
2018-08-04T00:18:00.074Z,22.22
2018-08-04T00:19:06.715Z,22.14
2018-08-04T00:20:13.365Z,22.09
2018-08-04T00:21:20.033Z,22.08
2018-08-04T00:22:26.675Z,22.07
2018-08-04T00:23:33.332Z,22.04
2018-08-04T00:24:39.979Z,22.00
2018-08-04T00:25:46.624Z,21.97
2018-08-04T00:26:53.276Z,21.95
2018-08-04T00:27:59.918Z,21.92
2018-08-04T00:29:06.595Z,21.89
2018-08-04T00:30:13.222Z,21.83
2018-08-04T00:31:20.856Z,21.80
2018-08-04T00:32:26.499Z,21.77
2018-08-04T00:33:33.130Z,21.75
2018-08-04T00:34:39.774Z,21.71
2018-08-04T00:35:46.400Z,21.68
2018-08-04T00:36:53.225Z,21.64
2018-08-04T00:37:59.674Z,21.58
2018-08-04T00:39:06.314Z,21.53
2018-08-04T00:40:12.930Z,21.48
2018-08-04T00:41:19.545Z,21.43
2018-08-04T00:42:26.277Z,21.46
2018-08-04T00:43:32.804Z,21.49
2018-08-04T00:44:39.440Z,21.56
2018-08-04T00:45:46.058Z,21.53
2018-08-04T00:46:52.663Z,21.50
2018-08-04T00:48:00.284Z,21.45
2018-08-04T00:49:05.907Z,21.39
2018-08-04T00:50:12.517Z,21.33
2018-08-04T00:51:19.136Z,21.27
2018-08-04T00:52:25.754Z,21.34
2018-08-04T00:53:32.367Z,21.46
2018-08-04T00:54:38.977Z,21.62
2018-08-04T00:55:45.588Z,21.87
2018-08-04T00:56:52.291Z,22.12
2018-08-04T00:57:58.810Z,22.35
2018-08-04T00:59:05.424Z,22.59
2018-08-04T01:00:12.040Z,22.73
2018-08-04T01:01:18.670Z,22.85
2018-08-04T01:02:25.266Z,22.97
2018-08-04T01:03:31.874Z,23.08
2018-08-04T01:04:38.513Z,23.10
2018-08-04T01:05:45.119Z,23.08
2018-08-04T01:06:51.742Z,23.09
2018-08-04T01:07:58.370Z,22.99
2018-08-04T01:09:04.996Z,23.03
2018-08-04T01:10:11.622Z,23.16
2018-08-04T01:11:18.239Z,23.31
2018-08-04T01:12:24.867Z,23.42
2018-08-04T01:13:31.504Z,23.54
2018-08-04T01:14:38.129Z,23.66
2018-08-04T01:15:44.768Z,23.76
2018-08-04T01:16:51.383Z,23.81
2018-08-04T01:17:58.032Z,23.86
2018-08-04T01:19:04.656Z,23.93
2018-08-04T01:20:11.320Z,23.91
2018-08-04T01:21:17.932Z,23.92
2018-08-04T01:22:24.585Z,23.91
2018-08-04T01:23:31.226Z,23.91
2018-08-04T01:24:37.874Z,23.89
2018-08-04T01:25:44.516Z,23.77
2018-08-04T01:26:51.284Z,23.59
2018-08-04T01:27:57.797Z,23.33
2018-08-04T01:29:04.441Z,23.07
2018-08-04T01:30:11.090Z,22.83
2018-08-04T01:31:17.728Z,22.65
2018-08-04T01:32:24.373Z,22.50
2018-08-04T01:33:31.012Z,22.37
2018-08-04T01:34:37.655Z,22.25
2018-08-04T01:35:44.303Z,22.14
2018-08-04T01:36:50.919Z,22.03
2018-08-04T01:37:57.562Z,21.93
2018-08-04T01:39:04.187Z,21.85
2018-08-04T01:40:10.819Z,21.77
2018-08-04T01:41:17.457Z,21.69
2018-08-04T01:42:39.012Z,21.62
2018-08-04T01:43:47.366Z,21.53
2018-08-04T01:44:53.996Z,21.49
2018-08-04T01:46:00.611Z,21.47
2018-08-04T01:47:07.237Z,21.42
2018-08-04T01:48:13.857Z,21.35
2018-08-04T01:49:20.473Z,21.32
2018-08-04T01:50:27.096Z,21.30
2018-08-04T01:51:33.707Z,21.28
2018-08-04T01:52:40.316Z,21.24
2018-08-04T01:53:47.003Z,21.20
2018-08-04T01:54:53.545Z,21.22
2018-08-04T01:56:00.264Z,21.20
2018-08-04T01:57:06.758Z,21.14
2018-08-04T01:58:13.378Z,21.10
2018-08-04T01:59:19.973Z,21.07
2018-08-04T02:00:26.573Z,21.06
2018-08-04T02:01:33.172Z,21.05
2018-08-04T02:02:39.787Z,20.99
2018-08-04T02:03:46.382Z,20.96
2018-08-04T02:04:52.985Z,20.99
2018-08-04T02:05:59.565Z,21.03
2018-08-04T02:07:06.268Z,20.98
2018-08-04T02:08:12.771Z,20.90
2018-08-04T02:09:19.368Z,20.86
2018-08-04T02:10:25.972Z,20.80
2018-08-04T02:11:32.554Z,20.76
2018-08-04T02:12:39.167Z,20.71
2018-08-04T02:13:45.741Z,20.70
2018-08-04T02:14:52.350Z,20.62
2018-08-04T02:15:58.925Z,20.54
2018-08-04T02:17:05.517Z,20.49
2018-08-04T02:18:12.120Z,20.44
2018-08-04T02:19:18.685Z,20.37
2018-08-04T02:20:25.293Z,20.33
2018-08-04T02:21:31.870Z,20.30
2018-08-04T02:22:38.443Z,20.29
2018-08-04T02:23:45.025Z,20.25
2018-08-04T02:24:51.623Z,20.21
2018-08-04T02:25:58.201Z,20.15
2018-08-04T02:27:04.776Z,20.13
2018-08-04T02:28:11.359Z,20.10
2018-08-04T02:29:17.937Z,20.06
2018-08-04T02:30:24.518Z,19.99
2018-08-04T02:31:31.077Z,19.97
2018-08-04T02:32:37.650Z,19.91
2018-08-04T02:33:44.231Z,19.86
2018-08-04T02:34:50.797Z,19.82
2018-08-04T02:35:57.363Z,19.82
2018-08-04T02:37:03.941Z,19.81
2018-08-04T02:38:10.498Z,19.75
2018-08-04T02:39:17.079Z,19.69
2018-08-04T02:40:23.631Z,19.65
2018-08-04T02:41:30.279Z,19.64
2018-08-04T02:42:36.747Z,19.62
2018-08-04T02:43:43.307Z,19.64
2018-08-04T02:44:50.863Z,19.65
2018-08-04T02:45:56.425Z,19.64
2018-08-04T02:47:02.991Z,19.64
2018-08-04T02:48:09.528Z,19.69
2018-08-04T02:49:16.080Z,19.73
2018-08-04T02:50:22.652Z,19.76
2018-08-04T02:51:29.196Z,19.73
2018-08-04T02:52:35.743Z,19.70
2018-08-04T02:53:42.296Z,19.67
2018-08-04T02:54:48.846Z,19.62
2018-08-04T02:55:55.396Z,19.61
2018-08-04T02:57:01.948Z,19.59
2018-08-04T02:58:08.491Z,19.57
2018-08-04T02:59:15.027Z,19.53
2018-08-04T03:00:21.587Z,19.50
2018-08-04T03:01:28.127Z,19.48
2018-08-04T03:02:34.671Z,19.45
2018-08-04T03:03:41.212Z,19.45
2018-08-04T03:04:47.744Z,19.44
2018-08-04T03:05:54.301Z,19.42
2018-08-04T03:07:00.843Z,19.36
2018-08-04T03:08:07.386Z,19.35
2018-08-04T03:09:13.913Z,19.31
2018-08-04T03:10:20.472Z,19.27
2018-08-04T03:11:26.996Z,19.26
2018-08-04T03:12:33.542Z,19.24
2018-08-04T03:13:40.073Z,19.21
2018-08-04T03:14:46.611Z,19.19
2018-08-04T03:15:53.143Z,19.17
2018-08-04T03:16:59.666Z,19.14
2018-08-04T03:18:06.201Z,19.13
2018-08-04T03:19:12.741Z,19.16
2018-08-04T03:20:19.275Z,19.21
2018-08-04T03:21:25.795Z,19.31
2018-08-04T03:22:32.343Z,19.34
2018-08-04T03:23:38.859Z,19.34
2018-08-04T03:24:45.407Z,19.28
2018-08-04T03:25:51.930Z,19.24
2018-08-04T03:26:58.452Z,19.18
2018-08-04T03:28:04.998Z,19.10
2018-08-04T03:29:11.514Z,19.03
2018-08-04T03:30:18.055Z,18.98
2018-08-04T03:31:24.577Z,18.96
2018-08-04T03:32:31.099Z,18.99
2018-08-04T03:33:37.631Z,19.01
2018-08-04T03:34:44.145Z,19.02
2018-08-04T03:35:50.680Z,19.06
2018-08-04T03:36:57.189Z,19.06
2018-08-04T03:38:03.731Z,19.02
2018-08-04T03:39:10.249Z,18.98
2018-08-04T03:40:16.772Z,18.93
2018-08-04T03:41:23.309Z,18.87
2018-08-04T03:42:29.832Z,18.80
2018-08-04T03:43:36.329Z,18.78
2018-08-04T03:44:42.851Z,18.76
2018-08-04T03:45:49.388Z,18.73
2018-08-04T03:46:55.894Z,18.72
2018-08-04T03:48:02.409Z,18.68
2018-08-04T03:49:08.928Z,18.65
2018-08-04T03:50:15.452Z,18.61
2018-08-04T03:51:22.971Z,18.61
2018-08-04T03:52:28.482Z,18.64
2018-08-04T03:53:35.004Z,18.65
2018-08-04T03:54:41.535Z,18.67
2018-08-04T03:55:48.038Z,18.67
2018-08-04T03:56:54.545Z,18.67
2018-08-04T03:58:01.062Z,18.67
2018-08-04T03:59:07.577Z,18.66
2018-08-04T04:00:14.099Z,18.64
2018-08-04T04:01:20.623Z,18.62
2018-08-04T04:02:27.323Z,18.60
2018-08-04T04:03:33.642Z,18.57
2018-08-04T04:04:40.155Z,18.56
2018-08-04T04:05:46.692Z,18.55
2018-08-04T04:06:53.182Z,18.54
2018-08-04T04:07:59.695Z,18.52
2018-08-04T04:09:06.223Z,18.50
2018-08-04T04:10:12.716Z,18.51
2018-08-04T04:11:19.244Z,18.53
2018-08-04T04:12:25.747Z,18.53
2018-08-04T04:13:33.262Z,18.50
2018-08-04T04:14:38.766Z,18.50
2018-08-04T04:15:45.280Z,18.52
2018-08-04T04:16:51.793Z,18.55
2018-08-04T04:17:58.296Z,18.57
2018-08-04T04:19:04.815Z,18.59
2018-08-04T04:20:11.323Z,18.65
2018-08-04T04:21:17.840Z,18.69
2018-08-04T04:22:24.355Z,18.73
2018-08-04T04:23:30.871Z,18.78
2018-08-04T04:24:37.375Z,18.82
2018-08-04T04:25:43.892Z,18.88
2018-08-04T04:26:50.400Z,18.95
2018-08-04T04:27:56.910Z,18.96
2018-08-04T04:29:03.435Z,18.97
2018-08-04T04:30:09.941Z,18.97
2018-08-04T04:31:16.458Z,18.96
2018-08-04T04:32:22.955Z,18.96
2018-08-04T04:33:29.476Z,18.96
2018-08-04T04:34:36.993Z,18.96
2018-08-04T04:35:42.516Z,18.98
2018-08-04T04:36:49.050Z,19.01
2018-08-04T04:37:55.546Z,19.04
2018-08-04T04:39:02.106Z,19.08
2018-08-04T04:40:08.570Z,19.12
2018-08-04T04:41:15.100Z,19.19
2018-08-04T04:42:21.640Z,19.25
2018-08-04T04:43:28.143Z,19.35
2018-08-04T04:44:34.657Z,19.43
2018-08-04T04:45:41.193Z,19.47
2018-08-04T04:46:47.695Z,19.51
2018-08-04T04:47:54.218Z,19.53
2018-08-04T04:49:00.750Z,19.54
2018-08-04T04:50:07.269Z,19.58
2018-08-04T04:51:13.806Z,19.65
2018-08-04T04:52:20.321Z,19.76
2018-08-04T04:53:26.843Z,19.95
2018-08-04T04:54:33.391Z,20.03
2018-08-04T04:55:39.914Z,20.20
2018-08-04T04:56:46.451Z,20.32
2018-08-04T04:57:52.971Z,20.36
2018-08-04T04:58:59.525Z,20.36
2018-08-04T05:00:06.052Z,20.41
2018-08-04T05:01:12.604Z,20.46
2018-08-04T05:02:19.146Z,20.55
2018-08-04T05:03:25.696Z,20.70
2018-08-04T05:04:32.234Z,20.77
2018-08-04T05:05:38.795Z,20.84
2018-08-04T05:06:45.338Z,20.98
2018-08-04T05:07:51.887Z,21.18
2018-08-04T05:08:58.445Z,21.36
2018-08-04T05:10:04.992Z,21.55
2018-08-04T05:11:11.576Z,21.69
2018-08-04T05:12:18.111Z,21.73
2018-08-04T05:13:24.764Z,21.73
2018-08-04T05:14:31.255Z,21.74
2018-08-04T05:15:37.823Z,21.71
2018-08-04T05:16:44.396Z,21.71
2018-08-04T05:17:50.968Z,21.72
2018-08-04T05:18:57.545Z,21.69
2018-08-04T05:20:04.132Z,21.66
2018-08-04T05:21:10.712Z,21.63
2018-08-04T05:22:17.290Z,21.67
2018-08-04T05:23:23.888Z,21.80
2018-08-04T05:24:30.483Z,21.92
2018-08-04T05:25:37.062Z,21.99
2018-08-04T05:26:43.671Z,22.07
2018-08-04T05:27:50.243Z,22.15
2018-08-04T05:28:57.846Z,22.26
2018-08-04T05:30:03.444Z,22.36
2018-08-04T05:31:10.056Z,22.41
2018-08-04T05:32:16.661Z,22.47
2018-08-04T05:33:23.273Z,22.51
2018-08-04T05:34:29.883Z,22.56
2018-08-04T05:35:36.496Z,22.60
2018-08-04T05:36:43.126Z,22.63
2018-08-04T05:37:49.722Z,22.65
2018-08-04T05:38:56.333Z,22.66
2018-08-04T05:40:02.956Z,22.68
2018-08-04T05:41:09.585Z,22.68
2018-08-04T05:42:17.273Z,22.71
2018-08-04T05:43:22.910Z,22.76
2018-08-04T05:44:29.436Z,22.89
2018-08-04T05:45:36.071Z,23.10
2018-08-04T05:46:42.686Z,23.24
2018-08-04T05:47:49.314Z,23.45
2018-08-04T05:48:55.945Z,23.79
2018-08-04T05:51:09.223Z,24.23
2018-08-04T05:52:15.843Z,24.47
2018-08-04T05:53:22.493Z,24.61
2018-08-04T05:54:29.120Z,24.73
2018-08-04T05:55:35.774Z,24.83
2018-08-04T05:56:42.433Z,24.87
2018-08-04T05:57:49.089Z,24.97
2018-08-04T05:58:55.732Z,25.09
2018-08-04T06:00:02.396Z,25.17
2018-08-04T06:01:09.078Z,25.22
2018-08-04T06:02:15.725Z,25.25
2018-08-04T06:03:22.415Z,25.26
2018-08-04T06:04:29.074Z,25.29
2018-08-04T06:05:35.739Z,25.38
2018-08-04T06:06:42.429Z,25.46
2018-08-04T06:07:49.113Z,25.54
2018-08-04T06:08:55.787Z,25.62
2018-08-04T06:10:02.777Z,25.68
2018-08-04T06:11:09.269Z,25.71
2018-08-04T06:12:15.872Z,25.79
2018-08-04T06:13:23.557Z,25.82
2018-08-04T06:14:29.296Z,25.89
2018-08-04T06:15:35.958Z,25.92
2018-08-04T06:16:42.670Z,25.97
2018-08-04T06:17:49.381Z,26.04
2018-08-04T06:18:56.078Z,26.08
2018-08-04T06:20:02.783Z,26.14
2018-08-04T06:21:10.504Z,26.16
2018-08-04T06:22:16.229Z,26.20
2018-08-04T06:23:22.952Z,26.23
2018-08-04T06:24:29.668Z,26.28
2018-08-04T06:25:36.387Z,26.32
2018-08-04T06:26:43.119Z,26.35
2018-08-04T06:27:49.846Z,26.39
2018-08-04T06:28:56.582Z,26.45
2018-08-04T06:30:03.323Z,26.49
2018-08-04T06:31:10.062Z,26.54
2018-08-04T06:32:16.792Z,26.58
2018-08-04T06:33:23.533Z,26.63
2018-08-04T06:34:30.323Z,26.69
2018-08-04T06:35:37.024Z,26.74
2018-08-04T06:36:43.773Z,26.81
2018-08-04T06:37:50.517Z,26.88
2018-08-04T06:38:57.274Z,26.91
2018-08-04T06:40:04.026Z,26.98
2018-08-04T06:41:10.789Z,27.06
2018-08-04T06:42:17.553Z,27.14
2018-08-04T06:43:24.306Z,27.21
2018-08-04T06:44:31.092Z,27.30
2018-08-04T06:45:37.843Z,27.42
2018-08-04T06:46:44.657Z,27.54
2018-08-04T06:47:51.395Z,27.73
2018-08-04T06:48:58.185Z,27.90
2018-08-04T06:50:04.987Z,28.15
2018-08-04T06:51:11.788Z,28.35
2018-08-04T06:52:18.614Z,28.45
2018-08-04T06:53:25.436Z,28.69
2018-08-04T06:54:32.258Z,28.98
2018-08-04T06:55:39.125Z,29.18
2018-08-04T06:56:45.954Z,29.40
2018-08-04T06:57:52.797Z,29.56
2018-08-04T07:00:06.543Z,29.51
2018-08-04T07:01:13.425Z,29.59
2018-08-04T07:02:20.337Z,29.52
2018-08-04T07:03:27.225Z,29.36
2018-08-04T07:04:34.108Z,29.19
2018-08-04T07:05:41.010Z,29.07
2018-08-04T07:06:47.903Z,28.82
2018-08-04T07:07:54.800Z,28.68
2018-08-04T07:09:01.683Z,28.58
2018-08-04T07:10:08.571Z,28.55
2018-08-04T07:11:15.464Z,28.51
2018-08-04T07:12:22.352Z,28.50
2018-08-04T07:13:29.712Z,28.46
2018-08-04T07:14:36.118Z,28.44
2018-08-04T07:15:43.003Z,28.39
2018-08-04T07:16:49.909Z,28.38
2018-08-04T07:17:56.783Z,28.33
2018-08-04T07:19:03.661Z,28.28
2018-08-04T07:20:10.531Z,28.25
2018-08-04T07:21:17.418Z,28.23
2018-08-04T07:22:24.306Z,28.18
2018-08-04T07:23:31.278Z,28.19
2018-08-04T07:24:38.142Z,28.18
2018-08-04T07:25:44.949Z,28.17
2018-08-04T07:26:51.845Z,28.18
2018-08-04T07:27:58.731Z,28.27
2018-08-04T07:29:05.725Z,28.33
2018-08-04T07:30:12.479Z,28.36
2018-08-04T07:31:19.361Z,28.41
2018-08-04T07:32:26.414Z,28.41
2018-08-04T07:33:33.137Z,28.37
2018-08-04T07:34:40.025Z,28.34
2018-08-04T07:35:46.912Z,28.22
2018-08-04T07:36:53.802Z,28.25
2018-08-04T07:38:00.681Z,28.24
2018-08-04T07:39:07.569Z,28.28
2018-08-04T07:40:14.434Z,28.30
2018-08-04T07:41:21.324Z,28.43
2018-08-04T07:42:28.226Z,28.52
2018-08-04T07:43:35.087Z,28.59
2018-08-04T07:44:41.976Z,28.67
2018-08-04T07:45:48.884Z,28.79
2018-08-04T07:46:55.776Z,28.89
2018-08-04T07:48:02.695Z,28.99
2018-08-04T07:49:09.597Z,29.02
2018-08-04T07:50:16.456Z,29.07
2018-08-04T07:51:23.371Z,29.13
2018-08-04T07:52:30.276Z,29.17
2018-08-04T07:53:37.292Z,29.23
2018-08-04T07:54:44.074Z,29.26
2018-08-04T07:55:50.996Z,29.27
2018-08-04T07:56:58.341Z,29.25
2018-08-04T07:58:04.801Z,29.33
2018-08-04T07:59:11.708Z,29.43
2018-08-04T08:00:18.628Z,29.58
2018-08-04T08:01:25.541Z,29.63
2018-08-04T08:02:32.451Z,29.59
2018-08-04T08:03:39.365Z,29.64
2018-08-04T08:04:46.290Z,29.77
2018-08-04T08:05:53.214Z,29.85
2018-08-04T08:07:00.127Z,29.95
2018-08-04T08:08:07.063Z,30.06
2018-08-04T08:09:13.975Z,30.15
2018-08-04T08:10:20.975Z,30.22
2018-08-04T08:11:27.913Z,30.24
2018-08-04T08:12:34.796Z,30.26
2018-08-04T08:13:41.731Z,30.27
2018-08-04T08:14:48.673Z,30.31
2018-08-04T08:15:55.618Z,30.42
2018-08-04T08:17:02.672Z,30.35
2018-08-04T08:18:09.525Z,30.34
2018-08-04T08:19:16.545Z,30.42
2018-08-04T08:20:23.436Z,30.50
2018-08-04T08:21:30.379Z,30.65
2018-08-04T08:22:37.336Z,30.75
2018-08-04T08:23:44.290Z,30.90
2018-08-04T08:24:51.263Z,31.00
2018-08-04T08:25:58.218Z,31.09
2018-08-04T08:27:05.198Z,31.23
2018-08-04T08:28:12.169Z,31.35
2018-08-04T08:29:19.142Z,31.51
2018-08-04T08:30:26.138Z,31.62
2018-08-04T08:31:33.149Z,31.72
2018-08-04T08:32:40.241Z,31.80
2018-08-04T08:33:47.145Z,31.95
2018-08-04T08:34:54.228Z,32.10
2018-08-04T08:36:01.392Z,32.18
2018-08-04T08:37:08.221Z,32.30
2018-08-04T08:38:15.262Z,32.39
2018-08-04T08:39:22.288Z,32.50
2018-08-04T08:40:29.389Z,32.60
2018-08-04T08:41:36.402Z,32.65
2018-08-04T08:42:43.428Z,32.92
2018-08-04T08:43:50.478Z,33.16
2018-08-04T08:44:57.542Z,33.30
2018-08-04T08:46:04.601Z,33.54
2018-08-04T08:47:11.695Z,33.67
2018-08-04T08:48:18.796Z,33.72
2018-08-04T08:49:25.877Z,33.80
2018-08-04T08:50:32.958Z,33.88
2018-08-04T08:51:40.072Z,33.89
2018-08-04T08:52:47.278Z,33.90
2018-08-04T08:53:54.374Z,33.98
2018-08-04T08:55:01.409Z,34.02
2018-08-04T08:56:09.545Z,34.09
2018-08-04T08:57:15.673Z,34.16
2018-08-04T08:58:22.814Z,34.27
2018-08-04T08:59:29.938Z,34.13
2018-08-04T09:00:37.074Z,33.84
2018-08-04T09:01:44.200Z,33.78
2018-08-04T09:02:51.343Z,33.88
2018-08-04T09:03:59.468Z,33.94
2018-08-04T09:05:05.583Z,33.94
2018-08-04T09:06:12.718Z,34.00
2018-08-04T09:07:19.841Z,34.14
2018-08-04T09:08:26.982Z,34.27
2018-08-04T09:09:34.114Z,34.51
2018-08-04T09:10:41.250Z,34.72
2018-08-04T09:11:48.408Z,34.94
2018-08-04T09:12:55.563Z,35.00
2018-08-04T09:14:02.717Z,35.02
2018-08-04T09:15:09.882Z,35.25
2018-08-04T09:16:17.063Z,35.57
2018-08-04T09:17:24.254Z,35.81
2018-08-04T09:18:31.454Z,35.97
2018-08-04T09:19:38.678Z,36.25
2018-08-04T09:20:45.904Z,36.53
2018-08-04T09:21:53.268Z,36.82
2018-08-04T09:23:00.466Z,37.18
2018-08-04T09:24:07.688Z,37.41
2018-08-04T09:25:14.968Z,37.68
2018-08-04T09:26:22.244Z,37.83
2018-08-04T09:27:29.569Z,37.78
2018-08-04T09:28:36.864Z,37.77
2018-08-04T09:29:44.178Z,37.80
2018-08-04T09:30:51.550Z,37.83
2018-08-04T09:31:58.777Z,37.85
2018-08-04T09:33:06.111Z,37.99
2018-08-04T09:34:13.458Z,37.50
2018-08-04T09:35:20.733Z,37.26
2018-08-04T09:36:28.054Z,37.29
2018-08-04T09:37:35.370Z,37.25
2018-08-04T09:38:42.686Z,37.36
2018-08-04T09:39:49.996Z,37.24
2018-08-04T09:40:57.303Z,37.21
2018-08-04T09:42:04.603Z,37.18
2018-08-04T09:43:11.941Z,37.02
2018-08-04T09:44:19.236Z,36.91
2018-08-04T09:45:26.552Z,37.01
2018-08-04T09:46:33.858Z,36.73
2018-08-04T09:47:41.274Z,36.82
2018-08-04T09:48:48.498Z,36.82
2018-08-04T09:49:55.819Z,36.73
2018-08-04T09:51:03.143Z,36.74
2018-08-04T09:52:10.471Z,36.77
2018-08-04T09:53:17.805Z,36.92
2018-08-04T09:54:25.150Z,36.96
2018-08-04T09:55:32.488Z,36.90
2018-08-04T09:56:39.839Z,37.13
2018-08-04T09:57:47.284Z,37.11
2018-08-04T09:58:54.868Z,37.14
2018-08-04T10:00:01.928Z,36.86
2018-08-04T10:01:09.281Z,36.74
2018-08-04T10:02:16.649Z,36.56
2018-08-04T10:03:24.008Z,36.37
2018-08-04T10:04:31.343Z,36.42
2018-08-04T10:05:38.693Z,36.43
2018-08-04T10:06:46.030Z,35.99
2018-08-04T10:07:53.364Z,35.79
2018-08-04T10:09:00.705Z,35.87
2018-08-04T10:10:08.030Z,36.04
2018-08-04T10:11:15.423Z,36.15
2018-08-04T10:12:22.717Z,36.16
2018-08-04T10:13:30.092Z,36.50
2018-08-04T10:14:37.450Z,37.05
2018-08-04T10:15:44.832Z,37.58
2018-08-04T10:16:52.218Z,37.90
2018-08-04T10:17:59.652Z,37.69
2018-08-04T10:19:07.035Z,37.78
2018-08-04T10:20:14.524Z,37.55
2018-08-04T10:21:21.838Z,37.16
2018-08-04T10:22:29.259Z,37.02
2018-08-04T10:23:36.639Z,37.05
2018-08-04T10:24:44.032Z,36.89
2018-08-04T10:25:51.432Z,36.73
2018-08-04T10:26:58.817Z,36.55
2018-08-04T10:28:06.212Z,36.46
2018-08-04T10:29:13.619Z,36.37
2018-08-04T10:30:20.993Z,36.40
2018-08-04T10:31:28.374Z,36.28
2018-08-04T10:32:35.832Z,36.07
2018-08-04T10:33:43.117Z,35.81
2018-08-04T10:34:50.449Z,35.46
2018-08-04T10:35:57.817Z,35.58
2018-08-04T10:37:05.135Z,35.77
2018-08-04T10:38:12.470Z,36.01
2018-08-04T10:39:19.832Z,35.95
2018-08-04T10:40:27.352Z,35.78
2018-08-04T10:41:34.491Z,35.51
2018-08-04T10:42:41.825Z,35.32
2018-08-04T10:43:49.151Z,35.33
2018-08-04T10:44:56.491Z,35.12
2018-08-04T10:46:03.806Z,35.18
2018-08-04T10:47:11.118Z,35.04
2018-08-04T10:48:18.461Z,35.08
2018-08-04T10:49:25.814Z,35.11
2018-08-04T10:50:34.022Z,35.21
2018-08-04T10:51:40.327Z,35.28
2018-08-04T10:52:47.623Z,35.20
2018-08-04T10:53:54.909Z,35.24
2018-08-04T10:55:02.177Z,35.25
2018-08-04T10:56:09.459Z,35.23
2018-08-04T10:57:16.742Z,35.26
2018-08-04T10:58:24.022Z,35.18
2018-08-04T10:59:31.318Z,35.16
2018-08-04T11:00:38.593Z,35.01
2018-08-04T11:01:45.890Z,34.91
2018-08-04T11:02:53.270Z,34.91
2018-08-04T11:04:00.488Z,34.94
2018-08-04T11:05:07.798Z,35.01
2018-08-04T11:06:15.118Z,34.97
2018-08-04T11:07:22.461Z,35.04
2018-08-04T11:08:29.785Z,35.17
2018-08-04T11:09:37.126Z,35.24
2018-08-04T11:10:44.461Z,35.28
2018-08-04T11:11:51.795Z,35.27
2018-08-04T11:12:59.131Z,35.32
2018-08-04T11:14:06.471Z,35.23
2018-08-04T11:15:13.798Z,35.20
2018-08-04T11:16:21.127Z,35.22
2018-08-04T11:17:28.487Z,35.34
2018-08-04T11:18:35.868Z,35.46
2018-08-04T11:19:43.288Z,35.59
2018-08-04T11:20:50.907Z,35.86
2018-08-04T11:21:58.150Z,36.06
2018-08-04T11:23:05.574Z,36.21
2018-08-04T11:24:13.145Z,36.26
2018-08-04T11:25:20.356Z,36.21
2018-08-04T11:26:27.733Z,36.22
2018-08-04T11:27:35.096Z,36.13
2018-08-04T11:28:42.430Z,35.62
2018-08-04T11:29:49.777Z,35.41
2018-08-04T11:30:57.109Z,35.28
2018-08-04T11:32:04.410Z,35.20
2018-08-04T11:33:12.720Z,35.12
2018-08-04T11:34:19.021Z,35.10
2018-08-04T11:35:26.301Z,35.16
2018-08-04T11:36:33.595Z,35.16
2018-08-04T11:37:41.358Z,35.22
2018-08-04T11:38:48.137Z,35.28
2018-08-04T11:39:55.416Z,35.39
2018-08-04T11:41:02.677Z,35.37
2018-08-04T11:42:09.931Z,35.32
2018-08-04T11:43:17.288Z,35.34
2018-08-04T11:44:24.487Z,35.13
2018-08-04T11:45:31.710Z,35.08
2018-08-04T11:46:39.039Z,34.98
2018-08-04T11:47:46.215Z,34.69
2018-08-04T11:48:53.388Z,34.54
2018-08-04T11:50:00.627Z,34.47
2018-08-04T11:51:08.145Z,34.44
2018-08-04T11:52:15.044Z,34.40
2018-08-04T11:53:22.246Z,34.28
2018-08-04T11:54:29.458Z,34.12
2018-08-04T11:55:36.657Z,34.02
2018-08-04T11:56:43.836Z,34.01
2018-08-04T11:57:51.028Z,34.02
2018-08-04T11:58:58.379Z,34.09
2018-08-04T12:00:05.446Z,34.19
2018-08-04T12:01:12.684Z,34.36
2018-08-04T12:02:20.022Z,34.59
2018-08-04T12:03:27.466Z,34.88
2018-08-04T12:04:34.990Z,35.10
2018-08-04T12:05:42.663Z,35.29
2018-08-04T12:06:50.249Z,35.45
2018-08-04T12:07:57.984Z,35.49
2018-08-04T12:09:05.817Z,35.50
2018-08-04T12:10:13.606Z,35.61
2018-08-04T12:11:21.476Z,35.57
2018-08-04T12:12:29.385Z,35.70
2018-08-04T12:13:37.317Z,35.82
2018-08-04T12:14:45.294Z,36.06
2018-08-04T12:15:53.273Z,36.28
2018-08-04T12:17:01.299Z,36.30
2018-08-04T12:18:09.366Z,36.36
2018-08-04T12:19:17.418Z,36.36
2018-08-04T12:20:25.561Z,36.41
2018-08-04T12:21:33.564Z,36.58
2018-08-04T12:22:41.486Z,36.82
2018-08-04T12:23:49.386Z,37.02
2018-08-04T12:24:57.219Z,36.95
2018-08-04T12:26:04.983Z,36.91
2018-08-04T12:27:12.704Z,36.85
2018-08-04T12:28:20.485Z,36.74
2018-08-04T12:29:28.308Z,36.83
2018-08-04T12:30:36.185Z,37.06
2018-08-04T12:31:44.223Z,37.30
2018-08-04T12:32:51.604Z,37.36
2018-08-04T12:33:59.306Z,37.28
2018-08-04T12:35:07.040Z,37.04
2018-08-04T12:36:14.733Z,37.08
2018-08-04T12:37:22.551Z,37.15
2018-08-04T12:38:30.402Z,37.30
2018-08-04T12:39:38.298Z,37.56
2018-08-04T12:40:46.171Z,37.80
2018-08-04T12:41:53.981Z,37.94
2018-08-04T12:43:01.749Z,38.13
2018-08-04T12:44:09.496Z,38.09
2018-08-04T12:45:17.201Z,37.86
2018-08-04T12:46:24.877Z,37.65
2018-08-04T12:47:32.518Z,37.49
2018-08-04T12:48:40.155Z,37.58
2018-08-04T12:49:47.789Z,37.77
2018-08-04T12:50:55.517Z,38.24
2018-08-04T12:52:03.061Z,38.50
2018-08-04T12:53:10.708Z,38.73
2018-08-04T12:54:18.372Z,38.79
2018-08-04T12:55:25.986Z,39.05
2018-08-04T12:56:33.721Z,39.30
2018-08-04T12:57:41.345Z,39.42
2018-08-04T12:58:49.017Z,39.24
2018-08-04T12:59:56.702Z,39.19
2018-08-04T13:01:04.421Z,39.20
2018-08-04T13:02:12.236Z,38.92
2018-08-04T13:03:19.954Z,38.61
2018-08-04T13:04:27.619Z,38.46
2018-08-04T13:05:35.396Z,38.13
2018-08-04T13:06:43.240Z,37.79
2018-08-04T13:07:51.101Z,37.49
2018-08-04T13:08:58.940Z,37.27
2018-08-04T13:10:06.755Z,37.02
2018-08-04T13:11:14.540Z,36.55
2018-08-04T13:12:22.285Z,36.03
2018-08-04T13:13:29.995Z,35.65
2018-08-04T13:14:37.660Z,35.48
2018-08-04T13:15:45.314Z,35.19
2018-08-04T13:16:52.873Z,35.07
2018-08-04T13:18:00.446Z,34.37
2018-08-04T13:19:07.992Z,31.92
2018-08-04T13:20:15.637Z,29.71
2018-08-04T13:21:22.981Z,28.69
2018-08-04T13:22:30.469Z,28.27
2018-08-04T13:23:37.976Z,28.46
2018-08-04T13:24:45.657Z,28.90
2018-08-04T13:25:53.057Z,29.06
2018-08-04T13:27:00.533Z,29.18
2018-08-04T13:28:07.989Z,29.53
2018-08-04T13:29:15.420Z,30.00
2018-08-04T13:30:22.866Z,30.59
2018-08-04T13:31:30.234Z,31.17
2018-08-04T13:32:37.641Z,31.88
2018-08-04T13:33:45.022Z,32.45
2018-08-04T13:34:52.432Z,32.97
2018-08-04T13:35:59.876Z,33.44
2018-08-04T13:37:07.372Z,33.96
2018-08-04T13:38:14.914Z,34.38
2018-08-04T13:39:22.472Z,34.78
2018-08-04T13:40:30.011Z,35.03
2018-08-04T13:41:37.550Z,35.11
2018-08-04T13:42:45.105Z,35.23
2018-08-04T13:43:52.588Z,35.07
2018-08-04T13:45:00.104Z,34.65
2018-08-04T13:46:08.029Z,33.25
2018-08-04T13:47:15.019Z,32.35
2018-08-04T13:48:22.447Z,31.70
2018-08-04T13:49:29.840Z,31.22
2018-08-04T13:50:37.208Z,31.17
2018-08-04T13:51:44.553Z,31.25
2018-08-04T13:52:51.913Z,31.81
2018-08-04T13:53:59.333Z,32.38
2018-08-04T13:55:06.877Z,32.61
2018-08-04T13:56:14.243Z,32.73
2018-08-04T13:57:21.742Z,32.76
2018-08-04T13:58:29.273Z,32.82
2018-08-04T13:59:36.801Z,32.85
2018-08-04T14:00:44.309Z,32.86
2018-08-04T14:01:52.820Z,32.80
2018-08-04T14:02:59.341Z,32.87
2018-08-04T14:04:06.784Z,33.09
2018-08-04T14:05:14.229Z,33.31
2018-08-04T14:06:21.666Z,33.39
2018-08-04T14:07:29.071Z,33.54
2018-08-04T14:08:36.464Z,33.65
2018-08-04T14:09:43.861Z,33.84
2018-08-04T14:10:51.229Z,33.99
2018-08-04T14:11:58.619Z,34.00
2018-08-04T14:13:05.922Z,34.01
2018-08-04T14:14:13.242Z,33.99
2018-08-04T14:15:20.580Z,34.04
2018-08-04T14:16:27.903Z,34.06
2018-08-04T14:17:35.247Z,34.11
2018-08-04T14:18:42.552Z,34.31
2018-08-04T14:19:49.889Z,34.50
2018-08-04T14:20:57.234Z,34.70
2018-08-04T14:22:04.552Z,34.71
2018-08-04T14:23:11.890Z,34.85
2018-08-04T14:24:19.257Z,34.85